sensor_id;sensor_type;location;lat;lon;timestamp;P1;durP1;ratioP1;P2;durP2;ratioP2
66587;SDS011;53446;50.076;8.198;2023-07-20T00:01:42;154.57;;;89.77;;
66587;SDS011;53446;50.076;8.198;2023-07-20T00:03:44;151.25;;;89.82;;
66587;SDS011;53446;50.076;8.198;2023-07-20T00:05:45;158.47;;;90.53;;
66587;SDS011;53446;50.076;8.198;2023-07-20T00:07:45;159.65;;;92.30;;
66587;SDS011;53446;50.076;8.198;2023-07-20T00:09:46;169.10;;;93.47;;
66587;SDS011;53446;50.076;8.198;2023-07-20T00:11:49;159.77;;;90.83;;
66587;SDS011;53446;50.076;8.198;2023-07-20T00:13:50;161.70;;;92.18;;
66587;SDS011;53446;50.076;8.198;2023-07-20T00:15:51;161.05;;;90.72;;
66587;SDS011;53446;50.076;8.198;2023-07-20T00:17:52;155.90;;;90.20;;
66587;SDS011;53446;50.076;8.198;2023-07-20T00:19:52;160.38;;;90.75;;
66587;SDS011;53446;50.076;8.198;2023-07-20T00:21:53;157.10;;;90.18;;
66587;SDS011;53446;50.076;8.198;2023-07-20T00:23:54;161.10;;;91.27;;
66587;SDS011;53446;50.076;8.198;2023-07-20T00:25:55;157.90;;;90.57;;
66587;SDS011;53446;50.076;8.198;2023-07-20T00:27:55;162.30;;;91.95;;
66587;SDS011;53446;50.076;8.198;2023-07-20T00:29:55;157.53;;;90.43;;
66587;SDS011;53446;50.076;8.198;2023-07-20T00:31:55;157.57;;;90.07;;
66587;SDS011;53446;50.076;8.198;2023-07-20T00:33:56;158.40;;;89.90;;
66587;SDS011;53446;50.076;8.198;2023-07-20T00:35:56;159.27;;;90.03;;
66587;SDS011;53446;50.076;8.198;2023-07-20T00:37:56;159.67;;;91.13;;
66587;SDS011;53446;50.076;8.198;2023-07-20T00:39:57;155.87;;;90.27;;
66587;SDS011;53446;50.076;8.198;2023-07-20T00:41:57;152.48;;;88.18;;
66587;SDS011;53446;50.076;8.198;2023-07-20T00:43:57;180.65;;;96.55;;
66587;SDS011;53446;50.076;8.198;2023-07-20T00:45:58;196.03;;;102.03;;
66587;SDS011;53446;50.076;8.198;2023-07-20T00:47:58;215.57;;;106.93;;
66587;SDS011;53446;50.076;8.198;2023-07-20T00:49:59;216.68;;;106.93;;
66587;SDS011;53446;50.076;8.198;2023-07-20T00:51:59;226.80;;;110.70;;
66587;SDS011;53446;50.076;8.198;2023-07-20T00:54:01;229.32;;;111.38;;
66587;SDS011;53446;50.076;8.198;2023-07-20T00:56:01;228.77;;;110.80;;
66587;SDS011;53446;50.076;8.198;2023-07-20T00:58:01;228.93;;;110.93;;
66587;SDS011;53446;50.076;8.198;2023-07-20T01:00:02;224.07;;;109.73;;
66587;SDS011;53446;50.076;8.198;2023-07-20T01:02:03;222.05;;;108.68;;
66587;SDS011;53446;50.076;8.198;2023-07-20T01:04:03;205.05;;;103.72;;
66587;SDS011;53446;50.076;8.198;2023-07-20T01:10:37;203.68;;;102.68;;
66587;SDS011;53446;50.076;8.198;2023-07-20T01:14:41;197.75;;;101.45;;
66587;SDS011;53446;50.076;8.198;2023-07-20T01:16:42;197.80;;;101.60;;
66587;SDS011;53446;50.076;8.198;2023-07-20T01:18:42;194.53;;;100.90;;
66587;SDS011;53446;50.076;8.198;2023-07-20T01:20:42;192.60;;;100.75;;
66587;SDS011;53446;50.076;8.198;2023-07-20T01:25:19;197.93;;;101.22;;
66587;SDS011;53446;50.076;8.198;2023-07-20T01:32:31;203.18;;;101.85;;
66587;SDS011;53446;50.076;8.198;2023-07-20T01:34:32;196.97;;;101.60;;
66587;SDS011;53446;50.076;8.198;2023-07-20T01:36:33;192.88;;;100.45;;
66587;SDS011;53446;50.076;8.198;2023-07-20T01:38:34;197.43;;;101.65;;
66587;SDS011;53446;50.076;8.198;2023-07-20T01:40:35;197.82;;;101.90;;
66587;SDS011;53446;50.076;8.198;2023-07-20T01:42:36;206.73;;;103.60;;
66587;SDS011;53446;50.076;8.198;2023-07-20T01:44:37;206.83;;;104.07;;
66587;SDS011;53446;50.076;8.198;2023-07-20T01:46:38;203.88;;;104.13;;
66587;SDS011;53446;50.076;8.198;2023-07-20T01:48:38;200.73;;;103.07;;
66587;SDS011;53446;50.076;8.198;2023-07-20T01:50:38;205.40;;;103.18;;
66587;SDS011;53446;50.076;8.198;2023-07-20T01:52:39;203.77;;;103.93;;
66587;SDS011;53446;50.076;8.198;2023-07-20T01:54:39;200.07;;;102.77;;
66587;SDS011;53446;50.076;8.198;2023-07-20T01:56:39;200.57;;;102.47;;
66587;SDS011;53446;50.076;8.198;2023-07-20T01:58:40;198.80;;;103.00;;
66587;SDS011;53446;50.076;8.198;2023-07-20T02:00:40;195.83;;;101.73;;
66587;SDS011;53446;50.076;8.198;2023-07-20T02:02:41;197.77;;;101.93;;
66587;SDS011;53446;50.076;8.198;2023-07-20T02:04:41;193.75;;;100.53;;
66587;SDS011;53446;50.076;8.198;2023-07-20T02:06:41;192.93;;;100.07;;
66587;SDS011;53446;50.076;8.198;2023-07-20T02:08:42;188.07;;;98.63;;
66587;SDS011;53446;50.076;8.198;2023-07-20T02:10:44;186.83;;;98.47;;
66587;SDS011;53446;50.076;8.198;2023-07-20T02:12:45;184.23;;;97.45;;
66587;SDS011;53446;50.076;8.198;2023-07-20T02:14:46;184.90;;;97.38;;
66587;SDS011;53446;50.076;8.198;2023-07-20T02:16:46;180.83;;;97.27;;
66587;SDS011;53446;50.076;8.198;2023-07-20T02:18:46;183.93;;;96.57;;
66587;SDS011;53446;50.076;8.198;2023-07-20T02:20:47;182.70;;;97.17;;
66587;SDS011;53446;50.076;8.198;2023-07-20T02:22:47;180.37;;;96.27;;
66587;SDS011;53446;50.076;8.198;2023-07-20T02:24:47;181.57;;;96.87;;
66587;SDS011;53446;50.076;8.198;2023-07-20T02:26:48;181.05;;;97.10;;
66587;SDS011;53446;50.076;8.198;2023-07-20T02:28:48;181.27;;;96.80;;
66587;SDS011;53446;50.076;8.198;2023-07-20T02:30:49;189.60;;;98.33;;
66587;SDS011;53446;50.076;8.198;2023-07-20T02:32:49;191.60;;;100.15;;
66587;SDS011;53446;50.076;8.198;2023-07-20T02:34:50;192.43;;;101.17;;
66587;SDS011;53446;50.076;8.198;2023-07-20T02:36:50;205.37;;;104.53;;
66587;SDS011;53446;50.076;8.198;2023-07-20T02:38:50;230.27;;;111.17;;
66587;SDS011;53446;50.076;8.198;2023-07-20T02:40:51;236.57;;;112.93;;
66587;SDS011;53446;50.076;8.198;2023-07-20T02:42:51;237.98;;;112.93;;
66587;SDS011;53446;50.076;8.198;2023-07-20T02:44:52;243.67;;;114.47;;
66587;SDS011;53446;50.076;8.198;2023-07-20T02:46:52;241.27;;;113.60;;
66587;SDS011;53446;50.076;8.198;2023-07-20T02:48:52;240.07;;;113.83;;
66587;SDS011;53446;50.076;8.198;2023-07-20T02:50:53;240.05;;;112.88;;
66587;SDS011;53446;50.076;8.198;2023-07-20T02:52:53;238.27;;;113.68;;
66587;SDS011;53446;50.076;8.198;2023-07-20T02:54:53;235.47;;;112.47;;
66587;SDS011;53446;50.076;8.198;2023-07-20T02:56:53;237.10;;;113.40;;
66587;SDS011;53446;50.076;8.198;2023-07-20T02:58:54;236.45;;;113.53;;
66587;SDS011;53446;50.076;8.198;2023-07-20T03:00:55;236.90;;;113.67;;
66587;SDS011;53446;50.076;8.198;2023-07-20T03:02:55;236.57;;;113.50;;
66587;SDS011;53446;50.076;8.198;2023-07-20T03:04:55;234.70;;;112.07;;
66587;SDS011;53446;50.076;8.198;2023-07-20T03:06:57;231.00;;;111.90;;
66587;SDS011;53446;50.076;8.198;2023-07-20T03:08:59;231.05;;;111.45;;
66587;SDS011;53446;50.076;8.198;2023-07-20T03:10:59;237.00;;;112.68;;
66587;SDS011;53446;50.076;8.198;2023-07-20T03:12:59;230.20;;;110.33;;
66587;SDS011;53446;50.076;8.198;2023-07-20T03:15:00;229.40;;;110.77;;
66587;SDS011;53446;50.076;8.198;2023-07-20T03:17:00;225.68;;;108.93;;
66587;SDS011;53446;50.076;8.198;2023-07-20T03:19:01;234.48;;;112.43;;
66587;SDS011;53446;50.076;8.198;2023-07-20T03:21:01;234.20;;;112.17;;
66587;SDS011;53446;50.076;8.198;2023-07-20T03:23:01;227.17;;;110.80;;
66587;SDS011;53446;50.076;8.198;2023-07-20T03:25:02;225.43;;;109.83;;
66587;SDS011;53446;50.076;8.198;2023-07-20T03:27:03;220.73;;;109.53;;
66587;SDS011;53446;50.076;8.198;2023-07-20T03:29:04;222.03;;;108.77;;
66587;SDS011;53446;50.076;8.198;2023-07-20T03:31:04;223.43;;;110.28;;
66587;SDS011;53446;50.076;8.198;2023-07-20T03:33:05;219.80;;;109.63;;
66587;SDS011;53446;50.076;8.198;2023-07-20T03:35:05;218.53;;;108.90;;
66587;SDS011;53446;50.076;8.198;2023-07-20T03:37:06;213.85;;;107.90;;
66587;SDS011;53446;50.076;8.198;2023-07-20T03:39:06;215.97;;;108.50;;
66587;SDS011;53446;50.076;8.198;2023-07-20T03:41:07;221.27;;;109.70;;
66587;SDS011;53446;50.076;8.198;2023-07-20T03:43:07;215.87;;;107.80;;
66587;SDS011;53446;50.076;8.198;2023-07-20T03:45:07;213.77;;;106.97;;
66587;SDS011;53446;50.076;8.198;2023-07-20T03:47:08;214.70;;;106.80;;
66587;SDS011;53446;50.076;8.198;2023-07-20T03:49:09;216.87;;;107.70;;
66587;SDS011;53446;50.076;8.198;2023-07-20T03:51:10;212.07;;;106.38;;
66587;SDS011;53446;50.076;8.198;2023-07-20T03:53:10;213.00;;;106.57;;
66587;SDS011;53446;50.076;8.198;2023-07-20T03:55:11;210.70;;;106.05;;
66587;SDS011;53446;50.076;8.198;2023-07-20T03:57:11;211.67;;;106.17;;
66587;SDS011;53446;50.076;8.198;2023-07-20T03:59:11;210.77;;;105.93;;
66587;SDS011;53446;50.076;8.198;2023-07-20T04:01:11;211.47;;;106.50;;
66587;SDS011;53446;50.076;8.198;2023-07-20T04:03:13;207.70;;;105.97;;
66587;SDS011;53446;50.076;8.198;2023-07-20T04:05:13;211.60;;;106.75;;
66587;SDS011;53446;50.076;8.198;2023-07-20T04:07:14;212.43;;;107.10;;
66587;SDS011;53446;50.076;8.198;2023-07-20T04:09:14;210.60;;;107.00;;
66587;SDS011;53446;50.076;8.198;2023-07-20T04:11:14;213.37;;;107.70;;
66587;SDS011;53446;50.076;8.198;2023-07-20T04:13:15;212.57;;;107.50;;
66587;SDS011;53446;50.076;8.198;2023-07-20T04:15:16;213.02;;;107.45;;
66587;SDS011;53446;50.076;8.198;2023-07-20T04:17:16;217.70;;;108.53;;
66587;SDS011;53446;50.076;8.198;2023-07-20T04:19:17;222.63;;;109.47;;
66587;SDS011;53446;50.076;8.198;2023-07-20T04:21:18;223.73;;;109.73;;
66587;SDS011;53446;50.076;8.198;2023-07-20T04:23:18;225.37;;;110.60;;
66587;SDS011;53446;50.076;8.198;2023-07-20T04:25:18;228.87;;;111.17;;
66587;SDS011;53446;50.076;8.198;2023-07-20T04:27:19;231.50;;;112.20;;
66587;SDS011;53446;50.076;8.198;2023-07-20T04:29:19;234.47;;;112.37;;
66587;SDS011;53446;50.076;8.198;2023-07-20T04:31:19;234.63;;;113.10;;
66587;SDS011;53446;50.076;8.198;2023-07-20T04:33:20;234.38;;;113.20;;
66587;SDS011;53446;50.076;8.198;2023-07-20T04:37:48;235.93;;;113.07;;
66587;SDS011;53446;50.076;8.198;2023-07-20T04:39:48;235.32;;;113.57;;
66587;SDS011;53446;50.076;8.198;2023-07-20T04:41:49;234.43;;;111.90;;
66587;SDS011;53446;50.076;8.198;2023-07-20T04:43:49;240.20;;;112.30;;
66587;SDS011;53446;50.076;8.198;2023-07-20T04:45:49;244.53;;;121.60;;
66587;SDS011;53446;50.076;8.198;2023-07-20T04:47:50;225.43;;;109.70;;
66587;SDS011;53446;50.076;8.198;2023-07-20T04:49:51;221.90;;;110.68;;
66587;SDS011;53446;50.076;8.198;2023-07-20T04:51:51;223.83;;;110.70;;
66587;SDS011;53446;50.076;8.198;2023-07-20T04:53:51;217.97;;;107.73;;
66587;SDS011;53446;50.076;8.198;2023-07-20T04:55:52;217.90;;;108.37;;
66587;SDS011;53446;50.076;8.198;2023-07-20T04:57:54;216.98;;;107.43;;
66587;SDS011;53446;50.076;8.198;2023-07-20T04:59:54;216.10;;;109.10;;
66587;SDS011;53446;50.076;8.198;2023-07-20T05:01:54;213.30;;;107.30;;
66587;SDS011;53446;50.076;8.198;2023-07-20T05:03:55;211.52;;;106.57;;
66587;SDS011;53446;50.076;8.198;2023-07-20T05:05:55;211.50;;;106.97;;
66587;SDS011;53446;50.076;8.198;2023-07-20T05:07:55;208.33;;;106.00;;
66587;SDS011;53446;50.076;8.198;2023-07-20T05:09:55;214.47;;;106.57;;
66587;SDS011;53446;50.076;8.198;2023-07-20T05:11:56;213.37;;;107.60;;
66587;SDS011;53446;50.076;8.198;2023-07-20T05:13:56;212.60;;;106.67;;
66587;SDS011;53446;50.076;8.198;2023-07-20T05:15:56;211.23;;;106.33;;
66587;SDS011;53446;50.076;8.198;2023-07-20T05:17:57;214.53;;;107.77;;
66587;SDS011;53446;50.076;8.198;2023-07-20T05:19:57;217.43;;;107.03;;
66587;SDS011;53446;50.076;8.198;2023-07-20T05:21:57;213.80;;;107.23;;
66587;SDS011;53446;50.076;8.198;2023-07-20T05:23:58;216.60;;;108.07;;
66587;SDS011;53446;50.076;8.198;2023-07-20T05:25:58;222.25;;;109.57;;
66587;SDS011;53446;50.076;8.198;2023-07-20T05:27:59;222.87;;;108.70;;
66587;SDS011;53446;50.076;8.198;2023-07-20T05:29:59;220.33;;;108.67;;
66587;SDS011;53446;50.076;8.198;2023-07-20T05:31:59;226.50;;;109.47;;
66587;SDS011;53446;50.076;8.198;2023-07-20T05:33:59;224.60;;;110.10;;
66587;SDS011;53446;50.076;8.198;2023-07-20T05:36:00;230.05;;;111.15;;
66587;SDS011;53446;50.076;8.198;2023-07-20T05:38:00;229.03;;;111.20;;
66587;SDS011;53446;50.076;8.198;2023-07-20T05:40:01;228.23;;;110.43;;
66587;SDS011;53446;50.076;8.198;2023-07-20T05:42:02;228.00;;;110.75;;
66587;SDS011;53446;50.076;8.198;2023-07-20T05:44:02;228.13;;;110.70;;
66587;SDS011;53446;50.076;8.198;2023-07-20T05:46:03;223.83;;;109.43;;
66587;SDS011;53446;50.076;8.198;2023-07-20T05:48:04;223.80;;;109.15;;
66587;SDS011;53446;50.076;8.198;2023-07-20T05:50:05;224.32;;;109.20;;
66587;SDS011;53446;50.076;8.198;2023-07-20T05:52:06;222.93;;;109.45;;
66587;SDS011;53446;50.076;8.198;2023-07-20T05:54:06;226.40;;;110.38;;
66587;SDS011;53446;50.076;8.198;2023-07-20T05:56:06;227.32;;;110.82;;
66587;SDS011;53446;50.076;8.198;2023-07-20T05:58:10;226.37;;;109.77;;
66587;SDS011;53446;50.076;8.198;2023-07-20T06:00:10;226.95;;;110.25;;
66587;SDS011;53446;50.076;8.198;2023-07-20T06:02:12;227.82;;;111.38;;
66587;SDS011;53446;50.076;8.198;2023-07-20T06:04:12;227.10;;;110.40;;
66587;SDS011;53446;50.076;8.198;2023-07-20T06:06:13;224.15;;;110.03;;
66587;SDS011;53446;50.076;8.198;2023-07-20T06:08:14;228.68;;;109.90;;
66587;SDS011;53446;50.076;8.198;2023-07-20T06:10:15;223.37;;;109.37;;
66587;SDS011;53446;50.076;8.198;2023-07-20T06:12:16;222.02;;;110.18;;
66587;SDS011;53446;50.076;8.198;2023-07-20T06:14:16;222.55;;;110.63;;
66587;SDS011;53446;50.076;8.198;2023-07-20T06:16:18;220.98;;;109.25;;
66587;SDS011;53446;50.076;8.198;2023-07-20T06:18:18;224.52;;;110.50;;
66587;SDS011;53446;50.076;8.198;2023-07-20T06:20:21;218.77;;;108.17;;
66587;SDS011;53446;50.076;8.198;2023-07-20T06:22:22;217.23;;;108.13;;
66587;SDS011;53446;50.076;8.198;2023-07-20T06:24:22;214.60;;;107.20;;
66587;SDS011;53446;50.076;8.198;2023-07-20T06:26:22;212.17;;;106.37;;
66587;SDS011;53446;50.076;8.198;2023-07-20T06:28:22;211.13;;;106.57;;
66587;SDS011;53446;50.076;8.198;2023-07-20T06:30:23;210.13;;;106.57;;
66587;SDS011;53446;50.076;8.198;2023-07-20T06:32:24;209.73;;;106.43;;
66587;SDS011;53446;50.076;8.198;2023-07-20T06:34:24;206.52;;;106.10;;
66587;SDS011;53446;50.076;8.198;2023-07-20T06:36:24;214.65;;;107.05;;
66587;SDS011;53446;50.076;8.198;2023-07-20T06:38:26;209.67;;;106.40;;
66587;SDS011;53446;50.076;8.198;2023-07-20T06:40:26;208.80;;;106.22;;
66587;SDS011;53446;50.076;8.198;2023-07-20T06:42:27;208.07;;;106.43;;
66587;SDS011;53446;50.076;8.198;2023-07-20T06:44:27;205.60;;;105.93;;
66587;SDS011;53446;50.076;8.198;2023-07-20T06:46:27;205.07;;;105.67;;
66587;SDS011;53446;50.076;8.198;2023-07-20T06:48:27;203.03;;;104.93;;
66587;SDS011;53446;50.076;8.198;2023-07-20T06:50:28;200.38;;;104.90;;
66587;SDS011;53446;50.076;8.198;2023-07-20T06:52:28;199.18;;;104.30;;
66587;SDS011;53446;50.076;8.198;2023-07-20T06:54:29;196.93;;;103.33;;
66587;SDS011;53446;50.076;8.198;2023-07-20T06:56:29;193.60;;;102.37;;
66587;SDS011;53446;50.076;8.198;2023-07-20T06:58:29;191.23;;;101.13;;
66587;SDS011;53446;50.076;8.198;2023-07-20T07:00:30;188.90;;;101.17;;
66587;SDS011;53446;50.076;8.198;2023-07-20T07:02:30;194.77;;;101.73;;
66587;SDS011;53446;50.076;8.198;2023-07-20T07:04:31;191.53;;;102.33;;
66587;SDS011;53446;50.076;8.198;2023-07-20T07:06:31;191.80;;;101.57;;
66587;SDS011;53446;50.076;8.198;2023-07-20T07:08:32;190.25;;;101.38;;
66587;SDS011;53446;50.076;8.198;2023-07-20T07:10:34;187.83;;;100.10;;
66587;SDS011;53446;50.076;8.198;2023-07-20T07:12:35;185.55;;;100.13;;
66587;SDS011;53446;50.076;8.198;2023-07-20T07:14:36;185.60;;;99.23;;
66587;SDS011;53446;50.076;8.198;2023-07-20T07:16:36;177.00;;;97.57;;
66587;SDS011;53446;50.076;8.198;2023-07-20T07:18:36;174.87;;;97.53;;
66587;SDS011;53446;50.076;8.198;2023-07-20T07:20:37;171.50;;;94.57;;
66587;SDS011;53446;50.076;8.198;2023-07-20T07:22:37;168.35;;;95.18;;
66587;SDS011;53446;50.076;8.198;2023-07-20T07:24:37;164.63;;;93.90;;
66587;SDS011;53446;50.076;8.198;2023-07-20T07:26:37;165.63;;;94.13;;
66587;SDS011;53446;50.076;8.198;2023-07-20T07:28:38;168.27;;;94.77;;
66587;SDS011;53446;50.076;8.198;2023-07-20T07:30:39;164.25;;;94.78;;
66587;SDS011;53446;50.076;8.198;2023-07-20T07:32:39;168.93;;;95.28;;
66587;SDS011;53446;50.076;8.198;2023-07-20T07:34:39;171.20;;;94.73;;
66587;SDS011;53446;50.076;8.198;2023-07-20T07:36:40;172.43;;;95.63;;
66587;SDS011;53446;50.076;8.198;2023-07-20T07:38:40;178.87;;;97.07;;
66587;SDS011;53446;50.076;8.198;2023-07-20T07:40:40;177.37;;;98.10;;
66587;SDS011;53446;50.076;8.198;2023-07-20T07:42:42;178.57;;;98.60;;
66587;SDS011;53446;50.076;8.198;2023-07-20T07:44:42;182.30;;;99.10;;
66587;SDS011;53446;50.076;8.198;2023-07-20T07:46:42;184.43;;;99.43;;
66587;SDS011;53446;50.076;8.198;2023-07-20T07:48:42;182.20;;;99.60;;
66587;SDS011;53446;50.076;8.198;2023-07-20T07:50:43;184.87;;;99.27;;
66587;SDS011;53446;50.076;8.198;2023-07-20T07:52:43;179.80;;;97.87;;
66587;SDS011;53446;50.076;8.198;2023-07-20T07:54:44;176.55;;;97.47;;
66587;SDS011;53446;50.076;8.198;2023-07-20T07:56:44;174.00;;;96.80;;
66587;SDS011;53446;50.076;8.198;2023-07-20T07:58:44;172.20;;;96.17;;
66587;SDS011;53446;50.076;8.198;2023-07-20T08:00:44;170.40;;;96.27;;
66587;SDS011;53446;50.076;8.198;2023-07-20T08:02:45;163.10;;;93.80;;
66587;SDS011;53446;50.076;8.198;2023-07-20T08:04:46;158.20;;;92.25;;
66587;SDS011;53446;50.076;8.198;2023-07-20T08:06:47;158.23;;;91.43;;
66587;SDS011;53446;50.076;8.198;2023-07-20T08:08:47;148.47;;;88.73;;
66587;SDS011;53446;50.076;8.198;2023-07-20T08:10:48;145.47;;;87.83;;
66587;SDS011;53446;50.076;8.198;2023-07-20T08:12:48;139.43;;;86.63;;
66587;SDS011;53446;50.076;8.198;2023-07-20T08:14:48;131.87;;;83.33;;
66587;SDS011;53446;50.076;8.198;2023-07-20T08:16:49;129.00;;;83.63;;
66587;SDS011;53446;50.076;8.198;2023-07-20T08:18:49;127.00;;;80.97;;
66587;SDS011;53446;50.076;8.198;2023-07-20T08:20:49;118.87;;;78.13;;
66587;SDS011;53446;50.076;8.198;2023-07-20T08:22:50;114.25;;;76.90;;
66587;SDS011;53446;50.076;8.198;2023-07-20T08:24:50;111.43;;;74.70;;
66587;SDS011;53446;50.076;8.198;2023-07-20T08:26:50;106.87;;;73.63;;
66587;SDS011;53446;50.076;8.198;2023-07-20T08:28:51;104.80;;;71.97;;
66587;SDS011;53446;50.076;8.198;2023-07-20T08:30:51;107.83;;;72.60;;
66587;SDS011;53446;50.076;8.198;2023-07-20T08:32:51;100.17;;;70.37;;
66587;SDS011;53446;50.076;8.198;2023-07-20T08:34:52;98.30;;;69.63;;
66587;SDS011;53446;50.076;8.198;2023-07-20T08:36:52;95.20;;;69.20;;
66587;SDS011;53446;50.076;8.198;2023-07-20T08:38:53;97.13;;;69.50;;
66587;SDS011;53446;50.076;8.198;2023-07-20T08:40:53;95.20;;;68.70;;
66587;SDS011;53446;50.076;8.198;2023-07-20T08:42:56;93.00;;;68.05;;
66587;SDS011;53446;50.076;8.198;2023-07-20T08:44:59;96.00;;;68.85;;
66587;SDS011;53446;50.076;8.198;2023-07-20T08:47:00;99.07;;;71.07;;
66587;SDS011;53446;50.076;8.198;2023-07-20T08:49:02;93.55;;;68.05;;
66587;SDS011;53446;50.076;8.198;2023-07-20T08:51:03;93.90;;;68.17;;
66587;SDS011;53446;50.076;8.198;2023-07-20T08:53:04;89.97;;;66.72;;
66587;SDS011;53446;50.076;8.198;2023-07-20T08:55:06;89.85;;;66.70;;
66587;SDS011;53446;50.076;8.198;2023-07-20T08:57:07;86.97;;;65.80;;
66587;SDS011;53446;50.076;8.198;2023-07-20T08:59:08;86.18;;;65.15;;
66587;SDS011;53446;50.076;8.198;2023-07-20T09:01:08;83.23;;;62.77;;
66587;SDS011;53446;50.076;8.198;2023-07-20T09:03:09;80.20;;;62.10;;
66587;SDS011;53446;50.076;8.198;2023-07-20T09:05:10;74.03;;;59.28;;
66587;SDS011;53446;50.076;8.198;2023-07-20T09:07:13;77.53;;;61.03;;
66587;SDS011;53446;50.076;8.198;2023-07-20T09:09:14;66.45;;;55.28;;
66587;SDS011;53446;50.076;8.198;2023-07-20T09:11:14;74.82;;;58.75;;
66587;SDS011;53446;50.076;8.198;2023-07-20T09:13:15;68.17;;;56.27;;
66587;SDS011;53446;50.076;8.198;2023-07-20T09:15:16;68.22;;;55.60;;
66587;SDS011;53446;50.076;8.198;2023-07-20T09:17:17;67.13;;;55.00;;
66587;SDS011;53446;50.076;8.198;2023-07-20T09:19:19;67.32;;;55.00;;
66587;SDS011;53446;50.076;8.198;2023-07-20T09:21:19;68.40;;;54.17;;
66587;SDS011;53446;50.076;8.198;2023-07-20T09:23:19;66.97;;;55.80;;
66587;SDS011;53446;50.076;8.198;2023-07-20T09:25:20;73.40;;;58.03;;
66587;SDS011;53446;50.076;8.198;2023-07-20T09:27:20;69.43;;;57.00;;
66587;SDS011;53446;50.076;8.198;2023-07-20T09:29:20;70.03;;;56.97;;
66587;SDS011;53446;50.076;8.198;2023-07-20T09:31:21;72.30;;;58.47;;
66587;SDS011;53446;50.076;8.198;2023-07-20T09:33:22;71.18;;;58.08;;
66587;SDS011;53446;50.076;8.198;2023-07-20T09:35:23;72.37;;;58.57;;
66587;SDS011;53446;50.076;8.198;2023-07-20T09:37:23;76.43;;;59.92;;
66587;SDS011;53446;50.076;8.198;2023-07-20T09:39:24;67.17;;;55.50;;
66587;SDS011;53446;50.076;8.198;2023-07-20T09:41:24;62.28;;;51.78;;
66587;SDS011;53446;50.076;8.198;2023-07-20T09:43:28;61.00;;;52.37;;
66587;SDS011;53446;50.076;8.198;2023-07-20T09:45:30;64.38;;;53.45;;
66587;SDS011;53446;50.076;8.198;2023-07-20T09:47:33;61.70;;;52.85;;
66587;SDS011;53446;50.076;8.198;2023-07-20T09:49:39;60.67;;;49.92;;
66587;SDS011;53446;50.076;8.198;2023-07-20T09:51:41;60.58;;;49.67;;
66587;SDS011;53446;50.076;8.198;2023-07-20T09:53:42;53.77;;;44.50;;
66587;SDS011;53446;50.076;8.198;2023-07-20T09:55:43;45.35;;;39.63;;
66587;SDS011;53446;50.076;8.198;2023-07-20T09:57:44;48.38;;;41.08;;
66587;SDS011;53446;50.076;8.198;2023-07-20T09:59:45;41.17;;;34.85;;
66587;SDS011;53446;50.076;8.198;2023-07-20T10:01:45;39.78;;;32.13;;
66587;SDS011;53446;50.076;8.198;2023-07-20T10:03:46;41.63;;;32.70;;
66587;SDS011;53446;50.076;8.198;2023-07-20T10:05:48;40.13;;;31.47;;
66587;SDS011;53446;50.076;8.198;2023-07-20T10:07:52;41.50;;;35.13;;
66587;SDS011;53446;50.076;8.198;2023-07-20T10:09:52;40.93;;;33.90;;
66587;SDS011;53446;50.076;8.198;2023-07-20T10:11:53;41.30;;;33.67;;
66587;SDS011;53446;50.076;8.198;2023-07-20T10:13:54;43.90;;;33.90;;
66587;SDS011;53446;50.076;8.198;2023-07-20T10:16:01;43.92;;;34.75;;
66587;SDS011;53446;50.076;8.198;2023-07-20T10:18:12;40.58;;;32.22;;
66587;SDS011;53446;50.076;8.198;2023-07-20T10:20:16;43.03;;;35.80;;
66587;SDS011;53446;50.076;8.198;2023-07-20T10:22:24;48.57;;;36.90;;
66587;SDS011;53446;50.076;8.198;2023-07-20T10:24:26;44.45;;;37.30;;
66587;SDS011;53446;50.076;8.198;2023-07-20T10:26:27;44.10;;;36.30;;
66587;SDS011;53446;50.076;8.198;2023-07-20T10:28:28;46.10;;;37.47;;
66587;SDS011;53446;50.076;8.198;2023-07-20T10:30:29;48.40;;;38.93;;
66587;SDS011;53446;50.076;8.198;2023-07-20T10:32:29;44.10;;;37.65;;
66587;SDS011;53446;50.076;8.198;2023-07-20T10:34:30;39.70;;;31.60;;
66587;SDS011;53446;50.076;8.198;2023-07-20T10:36:30;40.15;;;31.75;;
66587;SDS011;53446;50.076;8.198;2023-07-20T10:40:55;39.63;;;27.40;;
66587;SDS011;53446;50.076;8.198;2023-07-20T10:42:57;36.42;;;29.73;;
66587;SDS011;53446;50.076;8.198;2023-07-20T10:45:00;36.22;;;27.75;;
66587;SDS011;53446;50.076;8.198;2023-07-20T10:47:02;37.72;;;28.65;;
66587;SDS011;53446;50.076;8.198;2023-07-20T10:49:06;35.47;;;26.75;;
66587;SDS011;53446;50.076;8.198;2023-07-20T10:51:19;37.55;;;28.17;;
66587;SDS011;53446;50.076;8.198;2023-07-20T10:53:20;40.50;;;31.83;;
66587;SDS011;53446;50.076;8.198;2023-07-20T10:55:21;36.10;;;27.97;;
66587;SDS011;53446;50.076;8.198;2023-07-20T10:57:22;35.65;;;27.38;;
66587;SDS011;53446;50.076;8.198;2023-07-20T11:01:35;38.33;;;28.48;;
66587;SDS011;53446;50.076;8.198;2023-07-20T11:03:37;39.87;;;29.70;;
66587;SDS011;53446;50.076;8.198;2023-07-20T11:05:41;36.30;;;27.73;;
66587;SDS011;53446;50.076;8.198;2023-07-20T11:07:42;38.33;;;29.17;;
66587;SDS011;53446;50.076;8.198;2023-07-20T11:09:42;38.07;;;31.33;;
66587;SDS011;53446;50.076;8.198;2023-07-20T11:14:01;37.83;;;30.20;;
66587;SDS011;53446;50.076;8.198;2023-07-20T11:16:03;40.60;;;28.75;;
66587;SDS011;53446;50.076;8.198;2023-07-20T11:18:11;36.28;;;24.25;;
66587;SDS011;53446;50.076;8.198;2023-07-20T11:20:12;33.40;;;20.25;;
66587;SDS011;53446;50.076;8.198;2023-07-20T11:22:13;30.42;;;18.20;;
66587;SDS011;53446;50.076;8.198;2023-07-20T11:24:16;31.60;;;15.43;;
66587;SDS011;53446;50.076;8.198;2023-07-20T11:26:17;27.15;;;14.20;;
66587;SDS011;53446;50.076;8.198;2023-07-20T11:28:19;25.88;;;12.90;;
66587;SDS011;53446;50.076;8.198;2023-07-20T11:30:19;25.40;;;13.17;;
66587;SDS011;53446;50.076;8.198;2023-07-20T11:32:20;26.20;;;13.03;;
66587;SDS011;53446;50.076;8.198;2023-07-20T11:34:21;26.08;;;13.23;;
66587;SDS011;53446;50.076;8.198;2023-07-20T11:36:22;27.03;;;12.90;;
66587;SDS011;53446;50.076;8.198;2023-07-20T11:38:23;23.73;;;11.63;;
66587;SDS011;53446;50.076;8.198;2023-07-20T11:40:24;25.10;;;12.50;;
66587;SDS011;53446;50.076;8.198;2023-07-20T11:42:25;24.20;;;11.83;;
66587;SDS011;53446;50.076;8.198;2023-07-20T11:44:28;23.77;;;11.57;;
66587;SDS011;53446;50.076;8.198;2023-07-20T11:46:29;25.40;;;12.70;;
66587;SDS011;53446;50.076;8.198;2023-07-20T11:48:29;30.05;;;13.85;;
66587;SDS011;53446;50.076;8.198;2023-07-20T11:50:30;25.53;;;12.93;;
66587;SDS011;53446;50.076;8.198;2023-07-20T11:52:30;26.00;;;12.37;;
66587;SDS011;53446;50.076;8.198;2023-07-20T11:54:31;24.80;;;12.18;;
66587;SDS011;53446;50.076;8.198;2023-07-20T11:56:32;25.20;;;12.68;;
66587;SDS011;53446;50.076;8.198;2023-07-20T11:58:32;27.00;;;12.90;;